createdAt,value
2022-11-05T00:00:38.338Z,7.18
2022-11-05T00:03:28.967Z,7.23
2022-11-05T00:06:27.257Z,7.23
2022-11-05T00:09:12.531Z,7.23
2022-11-05T00:11:59.887Z,7.22
2022-11-05T00:14:49.403Z,7.20
2022-11-05T00:17:21.560Z,7.18
2022-11-05T00:19:48.453Z,7.17
2022-11-05T00:22:33.450Z,7.16
2022-11-05T00:25:18.591Z,7.14
2022-11-05T00:27:52.787Z,7.12
2022-11-05T00:30:23.268Z,7.09
2022-11-05T00:32:51.549Z,7.08
2022-11-05T00:35:21.854Z,7.06
2022-11-05T00:37:50.288Z,7.06
2022-11-05T00:40:17.459Z,7.05
2022-11-05T00:43:03.125Z,7.04
2022-11-05T00:45:30.488Z,7.03
2022-11-05T00:48:15.756Z,7.03
2022-11-05T00:50:42.710Z,7.03
2022-11-05T00:53:09.963Z,7.02
2022-11-05T00:55:39.983Z,7.02
2022-11-05T00:58:11.341Z,7.01
2022-11-05T01:00:40.785Z,7.01
2022-11-05T01:03:11.109Z,7.02
2022-11-05T01:05:40.676Z,7.03
2022-11-05T01:08:09.186Z,7.02
2022-11-05T01:10:46.970Z,7.03
2022-11-05T01:13:18.753Z,7.03
2022-11-05T01:15:46.617Z,7.02
2022-11-05T01:18:13.686Z,7.03
2022-11-05T01:20:40.679Z,7.03
2022-11-05T01:23:13.154Z,7.03
2022-11-05T01:25:42.538Z,7.04
2022-11-05T01:28:10.014Z,7.03
2022-11-05T01:30:37.515Z,7.05
2022-11-05T01:33:04.359Z,7.05
2022-11-05T01:35:31.203Z,7.06
2022-11-05T01:37:57.868Z,7.07
2022-11-05T01:40:25.345Z,7.07
2022-11-05T01:42:52.204Z,7.08
2022-11-05T01:45:26.935Z,7.09
2022-11-05T01:48:06.913Z,7.10
2022-11-05T01:50:44.134Z,7.13
2022-11-05T01:53:18.210Z,7.14
2022-11-05T01:56:05.545Z,7.13
2022-11-05T01:58:58.607Z,7.18
2022-11-05T02:01:25.474Z,7.19
2022-11-05T02:03:57.340Z,7.21
2022-11-05T02:06:27.437Z,7.22
2022-11-05T02:09:01.366Z,7.22
2022-11-05T02:11:28.338Z,7.23
2022-11-05T02:13:55.375Z,7.24
2022-11-05T02:16:43.041Z,7.25
2022-11-05T02:19:28.635Z,7.25
2022-11-05T02:22:42.730Z,7.26
2022-11-05T02:25:31.454Z,7.26
2022-11-05T02:28:36.471Z,7.27
2022-11-05T02:31:20.800Z,7.27
2022-11-05T02:34:02.780Z,7.27
2022-11-05T02:36:43.318Z,7.28
2022-11-05T02:39:15.758Z,7.28
2022-11-05T02:41:45.592Z,7.29
2022-11-05T02:44:34.183Z,7.28
2022-11-05T02:47:18.292Z,7.28
2022-11-05T02:50:10.307Z,7.29
2022-11-05T02:52:44.464Z,7.29
2022-11-05T02:55:17.317Z,7.30
2022-11-05T02:57:50.738Z,7.30
2022-11-05T03:00:51.817Z,7.30
2022-11-05T03:03:27.397Z,7.30
2022-11-05T03:06:16.382Z,7.31
2022-11-05T03:09:15.500Z,7.30
2022-11-05T03:11:53.615Z,7.30
2022-11-05T03:14:28.206Z,7.30
2022-11-05T03:17:04.020Z,7.29
2022-11-05T03:19:50.953Z,7.29
2022-11-05T03:22:28.118Z,7.29
2022-11-05T03:25:00.825Z,7.28
2022-11-05T03:27:34.091Z,7.27
2022-11-05T03:30:06.120Z,7.26
2022-11-05T03:32:38.364Z,7.25
2022-11-05T03:35:29.367Z,7.24
2022-11-05T03:38:01.523Z,7.24
2022-11-05T03:40:33.674Z,7.22
2022-11-05T03:43:03.352Z,7.23
2022-11-05T03:45:53.243Z,7.23
2022-11-05T03:48:27.012Z,7.23
2022-11-05T03:51:18.772Z,7.23
2022-11-05T03:53:51.345Z,7.23
2022-11-05T03:56:21.098Z,7.23
2022-11-05T03:58:48.775Z,7.22
2022-11-05T04:01:15.970Z,7.21
2022-11-05T04:03:44.170Z,7.21
2022-11-05T04:06:29.783Z,7.22
2022-11-05T04:09:15.240Z,7.20
2022-11-05T04:12:00.611Z,7.21
2022-11-05T04:14:27.588Z,7.21
2022-11-05T04:17:06.664Z,7.20
2022-11-05T04:19:56.203Z,7.20
2022-11-05T04:22:43.090Z,7.19
2022-11-05T04:25:10.477Z,7.19
2022-11-05T04:27:37.384Z,7.19
2022-11-05T04:30:20.123Z,7.17
2022-11-05T04:33:08.355Z,7.17
2022-11-05T04:35:39.640Z,7.16
2022-11-05T04:38:10.878Z,7.15
2022-11-05T04:40:38.128Z,7.15
2022-11-05T04:43:08.239Z,7.15
2022-11-05T04:45:37.699Z,7.17
2022-11-05T04:48:04.787Z,7.17
2022-11-05T04:50:31.873Z,7.17
2022-11-05T04:52:58.751Z,7.18
2022-11-05T04:55:26.444Z,7.19
2022-11-05T04:57:54.610Z,7.20
2022-11-05T05:00:23.323Z,7.22
2022-11-05T05:02:50.269Z,7.23
2022-11-05T05:05:18.681Z,7.25
2022-11-05T05:07:45.491Z,7.26
2022-11-05T05:10:12.814Z,7.26
2022-11-05T05:12:39.689Z,7.27
2022-11-05T05:15:06.836Z,7.28
2022-11-05T05:17:33.702Z,7.30
2022-11-05T05:20:19.199Z,7.31
2022-11-05T05:22:57.465Z,7.32
2022-11-05T05:25:24.384Z,7.33
2022-11-05T05:27:51.305Z,7.33
2022-11-05T05:30:18.475Z,7.31
2022-11-05T05:32:45.119Z,7.31
2022-11-05T05:35:12.149Z,7.29
2022-11-05T05:37:39.026Z,7.29
2022-11-05T05:40:06.515Z,7.29
2022-11-05T05:42:36.336Z,7.29
2022-11-05T05:45:06.155Z,7.29
2022-11-05T05:47:32.846Z,7.29
2022-11-05T05:49:59.659Z,7.30
2022-11-05T05:52:26.424Z,7.30
2022-11-05T05:54:53.158Z,7.31
2022-11-05T05:57:19.911Z,7.32
2022-11-05T05:59:46.614Z,7.33
2022-11-05T06:02:13.551Z,7.35
2022-11-05T06:04:40.424Z,7.37
2022-11-05T06:07:07.232Z,7.41
2022-11-05T06:09:34.025Z,7.45
2022-11-05T06:12:01.067Z,7.49
2022-11-05T06:14:27.867Z,7.53
2022-11-05T06:16:54.577Z,7.57
2022-11-05T06:19:21.341Z,7.62
2022-11-05T06:21:48.125Z,7.65
2022-11-05T06:24:15.067Z,7.69
2022-11-05T06:26:42.756Z,7.74
2022-11-05T06:29:12.705Z,7.79
2022-11-05T06:31:39.658Z,7.84
2022-11-05T06:34:06.635Z,7.89
2022-11-05T06:36:33.480Z,7.94
2022-11-05T06:39:07.837Z,8.02
2022-11-05T06:41:45.630Z,8.09
2022-11-05T06:44:21.888Z,8.17
2022-11-05T06:46:48.843Z,8.24
2022-11-05T06:49:15.628Z,8.31
2022-11-05T06:51:42.685Z,8.38
2022-11-05T06:54:09.475Z,8.44
2022-11-05T06:56:36.218Z,8.50
2022-11-05T06:59:03.259Z,8.57
2022-11-05T07:01:33.622Z,8.62
2022-11-05T07:04:01.215Z,8.67
2022-11-05T07:06:30.109Z,8.72
2022-11-05T07:09:00.175Z,8.77
2022-11-05T07:11:29.381Z,8.81
2022-11-05T07:14:01.991Z,8.85
2022-11-05T07:16:32.651Z,8.90
2022-11-05T07:18:59.806Z,8.96
2022-11-05T07:21:27.678Z,9.02
2022-11-05T07:23:57.723Z,9.08
2022-11-05T07:29:50.711Z,9.22
2022-11-05T07:32:17.708Z,9.28
2022-11-05T07:34:44.488Z,9.35
2022-11-05T07:37:11.302Z,9.41
2022-11-05T07:39:37.934Z,9.47
2022-11-05T07:42:04.752Z,9.55
2022-11-05T07:44:33.341Z,9.62
2022-11-05T07:47:00.071Z,9.71
2022-11-05T07:49:26.724Z,9.80
2022-11-05T07:51:53.460Z,9.89
2022-11-05T07:54:20.325Z,9.97
2022-11-05T07:56:47.387Z,10.05
2022-11-05T07:59:14.283Z,10.13
2022-11-05T08:01:41.247Z,10.20
2022-11-05T08:04:07.989Z,10.25
2022-11-05T08:06:34.870Z,10.31
2022-11-05T08:09:01.658Z,10.36
2022-11-05T08:11:28.429Z,10.40
2022-11-05T08:13:55.160Z,10.46
2022-11-05T08:16:21.926Z,10.52
2022-11-05T08:18:48.951Z,10.59
2022-11-05T08:21:15.789Z,10.63
2022-11-05T08:23:43.162Z,10.69
2022-11-05T08:26:10.415Z,10.75
2022-11-05T08:28:37.166Z,10.80
2022-11-05T08:31:04.109Z,10.86
2022-11-05T08:33:30.958Z,10.93
2022-11-05T08:36:02.184Z,11.01
2022-11-05T08:38:29.244Z,11.12
2022-11-05T08:40:57.565Z,11.24
2022-11-05T08:43:24.844Z,11.37
2022-11-05T08:45:51.794Z,11.50
2022-11-05T08:48:18.873Z,11.62
2022-11-05T08:50:47.659Z,11.74
2022-11-05T08:53:15.460Z,11.85
2022-11-05T08:55:43.360Z,11.99
2022-11-05T08:58:14.416Z,12.14
2022-11-05T09:00:41.411Z,12.30
2022-11-05T09:03:09.161Z,12.44
2022-11-05T09:05:38.635Z,12.53
2022-11-05T09:08:06.853Z,12.60
2022-11-05T09:10:34.038Z,12.67
2022-11-05T09:13:00.951Z,12.72
2022-11-05T09:15:28.271Z,12.82
2022-11-05T09:17:55.162Z,12.95
2022-11-05T09:20:22.560Z,13.09
2022-11-05T09:22:50.076Z,13.19
2022-11-05T09:25:16.945Z,13.24
2022-11-05T09:27:43.796Z,13.26
2022-11-05T09:30:12.530Z,13.28
2022-11-05T09:32:40.052Z,13.31
2022-11-05T09:35:08.015Z,13.34
2022-11-05T09:37:36.843Z,13.36
2022-11-05T09:40:04.632Z,13.39
2022-11-05T09:42:40.775Z,13.42
2022-11-05T09:45:19.868Z,13.45
2022-11-05T09:47:56.283Z,13.48
2022-11-05T09:50:33.301Z,13.51
2022-11-05T09:53:01.250Z,13.53
2022-11-05T09:55:41.539Z,13.57
2022-11-05T09:58:24.433Z,13.64
2022-11-05T10:00:54.469Z,13.73
2022-11-05T10:03:23.559Z,13.89
2022-11-05T10:05:53.977Z,14.07
2022-11-05T10:08:28.854Z,14.32
2022-11-05T10:11:20.350Z,14.56
2022-11-05T10:13:58.119Z,14.86
2022-11-05T10:16:36.313Z,15.11
2022-11-05T10:19:13.060Z,15.40
2022-11-05T10:24:33.241Z,15.98
2022-11-05T10:27:03.561Z,16.22
2022-11-05T10:29:38.374Z,16.41
2022-11-05T10:32:31.381Z,16.59
2022-11-05T10:35:26.504Z,16.69
2022-11-05T10:37:53.509Z,16.69
2022-11-05T10:40:58.684Z,16.69
2022-11-05T10:48:21.978Z,16.59
2022-11-05T10:50:54.592Z,16.57
2022-11-05T10:53:27.305Z,16.56
2022-11-05T10:55:54.658Z,16.55
2022-11-05T10:58:30.856Z,16.54
2022-11-05T11:00:57.752Z,16.53
2022-11-05T11:04:17.033Z,16.54
2022-11-05T11:06:49.282Z,16.61
2022-11-05T11:09:36.631Z,16.66
2022-11-05T11:12:27.027Z,16.68
2022-11-05T11:15:14.353Z,16.74
2022-11-05T11:17:41.637Z,16.75
2022-11-05T11:20:20.209Z,16.71
2022-11-05T11:23:09.547Z,16.63
2022-11-05T11:25:47.129Z,16.53
2022-11-05T11:28:20.348Z,16.42
2022-11-05T11:30:51.220Z,16.37
2022-11-05T11:33:26.372Z,16.33
2022-11-05T11:35:54.152Z,16.27
2022-11-05T11:38:22.687Z,16.25
2022-11-05T11:40:50.882Z,16.23
2022-11-05T11:43:30.075Z,16.20
2022-11-05T11:46:03.728Z,16.18
2022-11-05T11:48:35.847Z,16.19
2022-11-05T11:51:29.874Z,16.22
2022-11-05T11:54:01.098Z,16.30
2022-11-05T11:56:29.915Z,16.36
2022-11-05T11:59:02.397Z,16.45
2022-11-05T12:02:12.005Z,16.53
2022-11-05T12:04:59.460Z,16.59
2022-11-05T12:07:32.117Z,16.64
2022-11-05T12:10:32.531Z,16.67
2022-11-05T12:13:22.546Z,16.69
2022-11-05T12:15:56.609Z,16.71
2022-11-05T12:18:25.494Z,16.74
2022-11-05T12:21:50.925Z,16.76
2022-11-05T12:24:22.120Z,16.77
2022-11-05T12:27:12.215Z,16.78
2022-11-05T12:29:53.273Z,16.78
2022-11-05T12:33:21.901Z,16.78
2022-11-05T12:35:58.084Z,16.74
2022-11-05T12:38:32.047Z,16.71
2022-11-05T12:41:05.130Z,16.69
2022-11-05T12:43:38.180Z,16.66
2022-11-05T12:46:16.767Z,16.62
2022-11-05T12:49:04.057Z,16.57
2022-11-05T12:51:45.023Z,16.52
2022-11-05T12:54:14.937Z,16.46
2022-11-05T12:56:48.482Z,16.42
2022-11-05T12:59:18.271Z,16.38
2022-11-05T13:01:55.932Z,16.38
2022-11-05T13:04:43.045Z,16.40
2022-11-05T13:07:13.393Z,16.41
2022-11-05T13:09:55.285Z,16.42
2022-11-05T13:12:26.908Z,16.42
2022-11-05T13:15:02.282Z,16.39
2022-11-05T13:17:37.600Z,16.37
2022-11-05T13:20:21.655Z,16.35
2022-11-05T13:22:55.108Z,16.31
2022-11-05T13:25:27.449Z,16.28
2022-11-05T13:27:54.240Z,16.26
2022-11-05T13:30:24.887Z,16.22
2022-11-05T13:33:01.594Z,16.19
2022-11-05T13:36:10.480Z,16.15
2022-11-05T13:38:58.909Z,16.10
2022-11-05T13:41:40.774Z,16.04
2022-11-05T13:44:10.410Z,15.97
2022-11-05T13:47:15.165Z,15.91
2022-11-05T13:50:17.407Z,15.87
2022-11-05T13:52:44.309Z,15.80
2022-11-05T13:55:26.563Z,15.75
2022-11-05T13:58:02.397Z,15.70
2022-11-05T14:00:34.703Z,15.64
2022-11-05T14:03:05.216Z,15.60
2022-11-05T14:05:36.678Z,15.56
2022-11-05T14:08:20.705Z,15.52
2022-11-05T14:11:28.855Z,15.49
2022-11-05T14:14:01.503Z,15.43
2022-11-05T14:16:47.285Z,15.39
2022-11-05T14:19:20.272Z,15.36
2022-11-05T14:21:48.252Z,15.31
2022-11-05T14:24:21.284Z,15.27
2022-11-05T14:27:14.465Z,15.21
2022-11-05T14:29:51.135Z,15.16
2022-11-05T14:32:25.386Z,15.10
2022-11-05T14:34:55.567Z,15.04
2022-11-05T14:37:27.033Z,14.99
2022-11-05T14:39:55.322Z,14.94
2022-11-05T14:42:40.297Z,14.88
2022-11-05T14:45:13.382Z,14.83
2022-11-05T14:47:49.563Z,14.77
2022-11-05T14:50:26.558Z,14.70
2022-11-05T14:53:07.257Z,14.62
2022-11-05T14:55:38.905Z,14.56
2022-11-05T14:58:26.523Z,14.50
2022-11-05T15:00:54.626Z,14.42
2022-11-05T15:03:31.142Z,14.32
2022-11-05T15:06:12.950Z,14.24
2022-11-05T15:08:48.712Z,14.15
2022-11-05T15:11:59.650Z,14.08
2022-11-05T15:14:41.924Z,14.00
2022-11-05T15:17:29.244Z,13.91
2022-11-05T15:20:39.776Z,13.89
2022-11-05T15:23:29.412Z,13.85
2022-11-05T15:26:38.485Z,13.79
2022-11-05T15:29:28.426Z,13.72
2022-11-05T15:31:57.170Z,13.66
2022-11-05T15:34:31.804Z,13.61
2022-11-05T15:37:18.998Z,13.56
2022-11-05T15:39:48.440Z,13.52
2022-11-05T15:42:16.730Z,13.47
2022-11-05T15:44:46.887Z,13.42
2022-11-05T15:47:22.215Z,13.38
2022-11-05T15:49:53.588Z,13.34
2022-11-05T15:52:23.516Z,13.30
2022-11-05T15:55:18.198Z,13.25
2022-11-05T15:57:51.582Z,13.20
2022-11-05T16:00:22.295Z,13.14
2022-11-05T16:03:03.968Z,13.09
2022-11-05T16:05:34.175Z,13.00
2022-11-05T16:08:03.720Z,12.96
2022-11-05T16:10:34.524Z,12.88
2022-11-05T16:13:21.512Z,12.81
2022-11-05T16:15:57.063Z,12.75
2022-11-05T16:18:29.861Z,12.70
2022-11-05T16:21:18.328Z,12.66
2022-11-05T16:24:01.605Z,12.62
2022-11-05T16:29:29.415Z,12.51
2022-11-05T16:31:59.481Z,12.44
2022-11-05T16:34:40.660Z,12.37
2022-11-05T16:37:11.802Z,12.29
2022-11-05T16:39:38.593Z,12.22
2022-11-05T16:42:24.091Z,12.16
2022-11-05T16:44:52.617Z,12.10
2022-11-05T16:47:20.439Z,12.07
2022-11-05T16:50:02.052Z,12.02
2022-11-05T16:52:29.242Z,11.98
2022-11-05T16:54:56.182Z,11.93
2022-11-05T16:57:31.500Z,11.88
2022-11-05T16:59:59.948Z,11.83
2022-11-05T17:02:27.083Z,11.80
2022-11-05T17:04:54.345Z,11.76
2022-11-05T17:07:21.185Z,11.73
2022-11-05T17:09:48.125Z,11.70
2022-11-05T17:12:15.474Z,11.66
2022-11-05T17:14:42.469Z,11.63
2022-11-05T17:17:09.940Z,11.59
2022-11-05T17:19:41.577Z,11.57
2022-11-05T17:22:08.415Z,11.54
2022-11-05T17:24:35.370Z,11.52
2022-11-05T17:27:02.302Z,11.50
2022-11-05T17:29:29.275Z,11.49
2022-11-05T17:31:56.183Z,11.47
2022-11-05T17:34:22.967Z,11.45
2022-11-05T17:36:49.763Z,11.42
2022-11-05T17:39:16.715Z,11.41
2022-11-05T17:41:43.890Z,11.40
2022-11-05T17:44:11.436Z,11.38
2022-11-05T17:46:38.308Z,11.37
2022-11-05T17:49:05.172Z,11.37
2022-11-05T17:51:33.703Z,11.36
2022-11-05T17:54:00.597Z,11.36
2022-11-05T17:56:33.868Z,11.35
2022-11-05T17:59:02.866Z,11.34
2022-11-05T18:01:33.279Z,11.33
2022-11-05T18:04:05.424Z,11.31
2022-11-05T18:06:37.352Z,11.30
2022-11-05T18:09:07.027Z,11.28
2022-11-05T18:11:35.375Z,11.26
2022-11-05T18:14:03.341Z,11.24
2022-11-05T18:16:30.562Z,11.21
2022-11-05T18:18:57.947Z,11.19
2022-11-05T18:21:24.767Z,11.18
2022-11-05T18:23:52.043Z,11.15
2022-11-05T18:26:19.016Z,11.13
2022-11-05T18:28:45.960Z,11.09
2022-11-05T18:31:18.095Z,11.07
2022-11-05T18:33:46.391Z,11.05
2022-11-05T18:36:18.511Z,11.02
2022-11-05T18:38:45.918Z,10.98
2022-11-05T18:41:12.932Z,10.96
2022-11-05T18:43:40.039Z,10.93
2022-11-05T18:46:07.363Z,10.90
2022-11-05T18:48:35.352Z,10.88
2022-11-05T18:51:10.066Z,10.85
2022-11-05T18:53:38.125Z,10.82
2022-11-05T18:56:22.905Z,10.79
2022-11-05T18:59:08.395Z,10.75
2022-11-05T19:01:38.892Z,10.71
2022-11-05T19:04:06.014Z,10.69
2022-11-05T19:06:34.798Z,10.68
2022-11-05T19:09:02.215Z,10.68
2022-11-05T19:11:28.983Z,10.66
2022-11-05T19:13:55.767Z,10.65
2022-11-05T19:16:25.517Z,10.65
2022-11-05T19:18:52.508Z,10.64
2022-11-05T19:21:27.174Z,10.63
2022-11-05T19:23:57.331Z,10.62
2022-11-05T19:26:28.571Z,10.62
2022-11-05T19:29:03.304Z,10.60
2022-11-05T19:31:34.119Z,10.59
2022-11-05T19:34:02.578Z,10.58
2022-11-05T19:36:29.632Z,10.57
2022-11-05T19:38:59.301Z,10.55
2022-11-05T19:41:28.035Z,10.53
2022-11-05T19:43:57.427Z,10.51
2022-11-05T19:46:25.266Z,10.50
2022-11-05T19:48:52.515Z,10.47
2022-11-05T19:51:25.699Z,10.45
2022-11-05T19:53:54.656Z,10.43
2022-11-05T19:56:37.799Z,10.37
2022-11-05T19:59:08.547Z,10.37
2022-11-05T20:01:36.067Z,10.33
2022-11-05T20:04:04.224Z,10.34
2022-11-05T20:06:37.417Z,10.31
2022-11-05T20:09:22.613Z,10.32
2022-11-05T20:11:53.744Z,10.31
2022-11-05T20:14:20.654Z,10.29
2022-11-05T20:16:47.965Z,10.28
2022-11-05T20:19:18.050Z,10.27
2022-11-05T20:21:45.663Z,10.25
2022-11-05T20:24:18.816Z,10.23
2022-11-05T20:26:58.694Z,10.20
2022-11-05T20:29:30.532Z,10.18
2022-11-05T20:32:03.379Z,10.15
2022-11-05T20:34:32.325Z,10.07
2022-11-05T20:36:59.885Z,10.08
2022-11-05T20:39:27.059Z,10.06
2022-11-05T20:41:55.848Z,9.99
2022-11-05T20:44:22.896Z,10.00
2022-11-05T20:46:49.763Z,9.94
2022-11-05T20:49:20.072Z,9.94
2022-11-05T20:51:49.398Z,9.91
2022-11-05T20:54:16.202Z,9.89
2022-11-05T20:56:43.071Z,9.86
2022-11-05T20:59:10.550Z,9.83
2022-11-05T21:01:37.668Z,9.81
2022-11-05T21:04:05.091Z,9.80
2022-11-05T21:06:33.113Z,9.78
2022-11-05T21:09:00.450Z,9.76
2022-11-05T21:11:27.651Z,9.73
2022-11-05T21:13:54.851Z,9.71
2022-11-05T21:16:22.499Z,9.68
2022-11-05T21:18:49.619Z,9.64
2022-11-05T21:21:20.428Z,9.62
2022-11-05T21:23:47.677Z,9.58
2022-11-05T21:26:16.228Z,9.55
2022-11-05T21:28:43.529Z,9.52
2022-11-05T21:31:10.744Z,9.49
2022-11-05T21:33:39.164Z,9.45
2022-11-05T21:36:12.673Z,9.42
2022-11-05T21:38:41.404Z,9.39
2022-11-05T21:41:17.406Z,9.35
2022-11-05T21:43:44.570Z,9.31
2022-11-05T21:46:13.153Z,9.26
2022-11-05T21:48:40.244Z,9.21
2022-11-05T21:51:27.981Z,9.16
2022-11-05T21:54:14.727Z,9.11
2022-11-05T21:57:05.882Z,9.07
2022-11-05T21:59:47.289Z,9.01
2022-11-05T22:02:17.487Z,8.97
2022-11-05T22:04:47.531Z,8.94
2022-11-05T22:07:21.817Z,8.91
2022-11-05T22:09:59.593Z,8.88
2022-11-05T22:12:27.530Z,8.85
2022-11-05T22:14:54.786Z,8.81
2022-11-05T22:17:24.152Z,8.76
2022-11-05T22:19:55.554Z,8.71
2022-11-05T22:22:22.701Z,8.67
2022-11-05T22:24:49.882Z,8.60
2022-11-05T22:27:20.926Z,8.54
2022-11-05T22:29:49.361Z,8.48
2022-11-05T22:32:16.858Z,8.40
2022-11-05T22:34:43.826Z,8.33
2022-11-05T22:37:13.162Z,8.26
2022-11-05T22:39:39.996Z,8.19
2022-11-05T22:42:08.761Z,8.12
2022-11-05T22:44:39.008Z,8.05
2022-11-05T22:47:06.354Z,7.98
2022-11-05T22:49:33.854Z,7.91
2022-11-05T22:52:02.389Z,7.84
2022-11-05T22:54:29.271Z,7.77
2022-11-05T22:56:56.276Z,7.72
2022-11-05T22:59:23.351Z,7.65
2022-11-05T23:01:50.302Z,7.60
2022-11-05T23:04:17.564Z,7.54
2022-11-05T23:07:03.151Z,7.50
2022-11-05T23:09:57.694Z,7.44
2022-11-05T23:12:29.766Z,7.37
2022-11-05T23:14:59.710Z,7.33
2022-11-05T23:17:46.245Z,7.30
2022-11-05T23:20:38.653Z,7.26
2022-11-05T23:23:31.007Z,7.23
2022-11-05T23:25:59.527Z,7.18
2022-11-05T23:28:26.564Z,7.15
2022-11-05T23:31:14.667Z,7.09
2022-11-05T23:33:41.549Z,7.04
2022-11-05T23:36:30.857Z,7.00
2022-11-05T23:38:57.744Z,6.95
2022-11-05T23:42:01.620Z,6.91
2022-11-05T23:44:49.908Z,6.87
2022-11-05T23:47:39.414Z,6.83
2022-11-05T23:50:06.615Z,6.78
2022-11-05T23:52:33.945Z,6.74
2022-11-05T23:55:04.247Z,6.71
2022-11-05T23:57:31.255Z,6.68
2022-11-05T23:59:58.293Z,6.65
